»·PEaware :: ASA877 KSFO-KLAX

ASA877 :: KSFO-KLAX

FLIGHT INFORMATION

Flight Status: Arrived
Operator:
Alaska Airlines
More flights by this operator :: More flights under this callsign
Pilot: Anthony T. (15846)
Aircraft: BOEING 737-800
(B738)
More flights by this aircraft type
Origin: KSFO San Francisco Intl
United States
Destination: KLAX Los Angeles Intl
United States
More flights between these airports :: More routes between these airports
Route: +SSTIK3 EBAYE BURGL IRNMN1
File this flight plan on PilotEdge
Remarks:
Altitude:
(Current/Filed)
27,000ft
Speed:
(Current/Filed)
315kts
Departed: 08-May-18 08:31 PM
Arrived: 08-May-18 09:27 PM
Distance/Time
Traveled:
292nm/0:56
Distance/Time
To Go:
Arrived

Flight Plot

Page will automatically refresh every two minutes.

Flight plan parsing failed; only flown route is shown


Map Options




Map Legend


Flown Route
Filed Route
Departure Airport
Arrival Airport
Navaid (VOR, NDB)
Fix

Horizontal Profiles

Position Reports

Time Latitude Longitude Heading Altitude Ground
Speed
08-May-18 20:17 37.611683 -122.385971 34 31ft 0kts
08-May-18 20:18 37.611683 -122.385971 34 31ft 0kts
08-May-18 20:19 37.611683 -122.385971 34 31ft 0kts
08-May-18 20:20 37.611683 -122.385971 34 31ft 0kts
08-May-18 20:21 37.611683 -122.385971 34 31ft 0kts
08-May-18 20:22 37.611683 -122.385971 34 31ft 0kts
08-May-18 20:23 37.611683 -122.385971 34 31ft 0kts
08-May-18 20:24 37.611490 -122.386728 119 31ft 0kts
08-May-18 20:25 37.611490 -122.386728 119 31ft 0kts
08-May-18 20:26 37.610583 -122.384634 122 31ft 14kts
08-May-18 20:27 37.608970 -122.383660 123 31ft 0kts
08-May-18 20:28 37.608970 -122.383660 123 31ft 0kts
08-May-18 20:29 37.608970 -122.383660 123 31ft 0kts
08-May-18 20:30 37.608946 -122.383613 122 31ft 5kts
08-May-18 20:31 37.639012 -122.364965 3 1189ft 220kts
08-May-18 20:32 37.702388 -122.372192 310 5183ft 249kts
08-May-18 20:33 37.685110 -122.439276 197 9005ft 253kts
08-May-18 20:34 37.613436 -122.453211 191 12675ft 293kts
08-May-18 20:35 37.526520 -122.468251 190 15690ft 328kts
08-May-18 20:36 37.447672 -122.495666 172 17130ft 329kts
08-May-18 20:37 37.353156 -122.472159 172 19073ft 354kts
08-May-18 20:38 37.285087 -122.380417 129 19089ft 378kts
08-May-18 20:39 37.222259 -122.275752 133 19074ft 380kts
08-May-18 20:40 37.148543 -122.160343 133 21137ft 444kts
08-May-18 20:41 37.070548 -122.038975 134 24600ft 455kts
08-May-18 20:42 36.990507 -121.915072 135 27045ft 480kts
08-May-18 20:43 36.901958 -121.778497 135 27051ft 513kts
08-May-18 20:44 36.812447 -121.640961 135 27058ft 513kts
08-May-18 20:45 36.722150 -121.502796 135 27046ft 514kts
08-May-18 20:46 36.632177 -121.365689 135 27035ft 514kts
08-May-18 20:47 36.541710 -121.228394 136 27030ft 513kts
08-May-18 20:48 36.450473 -121.090591 135 27023ft 523kts
08-May-18 20:49 36.355245 -120.952357 135 26997ft 532kts
08-May-18 20:50 36.258640 -120.813757 135 26983ft 532kts
08-May-18 20:51 36.162389 -120.676349 135 27057ft 532kts
08-May-18 20:52 36.065180 -120.538146 135 27059ft 532kts
08-May-18 20:53 35.968354 -120.401050 135 27052ft 532kts
08-May-18 20:54 35.869162 -120.267189 147 27036ft 522kts
08-May-18 20:55 35.748790 -120.170143 154 27048ft 517kts
08-May-18 20:56 35.626565 -120.077930 154 27047ft 517kts
08-May-18 20:57 35.504451 -119.985907 154 27017ft 517kts
08-May-18 20:58 35.381929 -119.893905 154 27005ft 516kts
08-May-18 20:59 35.261625 -119.798143 148 27001ft 521kts
08-May-18 21:00 35.146865 -119.691517 148 27012ft 521kts
08-May-18 21:01 35.031734 -119.584357 147 26997ft 523kts
08-May-18 21:02 34.915978 -119.477235 146 25274ft 518kts
08-May-18 21:03 34.807094 -119.379511 146 23037ft 466kts
08-May-18 21:04 34.701610 -119.286174 147 22977ft 471kts
08-May-18 21:05 34.595347 -119.193990 147 22027ft 467kts
08-May-18 21:06 34.493677 -119.104703 145 19853ft 453kts
08-May-18 21:07 34.393882 -119.017344 145 17348ft 436kts
08-May-18 21:08 34.298953 -118.933266 143 14856ft 416kts
08-May-18 21:09 34.211821 -118.853726 142 13019ft 376kts
08-May-18 21:10 34.132552 -118.775222 137 11032ft 364kts
08-May-18 21:11 34.059278 -118.695760 138 9079ft 342kts
08-May-18 21:12 34.026045 -118.602787 98 8349ft 290kts
08-May-18 21:13 34.015558 -118.510928 96 7991ft 280kts
08-May-18 21:14 34.016877 -118.423694 81 6402ft 261kts
08-May-18 21:15 34.026273 -118.349139 81 4546ft 234kts
08-May-18 21:16 34.036010 -118.281564 81 2643ft 221kts
08-May-18 21:17 34.046079 -118.214043 81 2567ft 202kts
08-May-18 21:18 34.055481 -118.148526 81 2579ft 204kts
08-May-18 21:19 34.030153 -118.105083 179 2577ft 195kts
08-May-18 21:20 33.996337 -118.135318 238 2586ft 160kts
08-May-18 21:21 33.978882 -118.180327 251 2577ft 151kts
08-May-18 21:22 33.970221 -118.225960 263 2589ft 152kts
08-May-18 21:23 33.966043 -118.267253 263 2309ft 153kts
08-May-18 21:24 33.961429 -118.312295 263 1617ft 155kts
08-May-18 21:25 33.956488 -118.360097 264 836ft 142kts
08-May-18 21:26 33.951847 -118.404503 263 132ft 128kts
08-May-18 21:27 33.948920 -118.426197 232 114ft 28kts

Navigation Log

Ident Type
Flight plan parsing failed, navigation log unavailable